sensor_id;sensor_type;location;lat;lon;timestamp;P1;durP1;ratioP1;P2;durP2;ratioP2
14040;SDS011;7095;51.388;6.196;2023-09-19T00:00:47;16.00;;;3.33;;
14040;SDS011;7095;51.388;6.196;2023-09-19T00:03:16;14.10;;;3.73;;
14040;SDS011;7095;51.388;6.196;2023-09-19T00:05:47;15.17;;;3.40;;
14040;SDS011;7095;51.388;6.196;2023-09-19T00:08:17;10.07;;;3.50;;
14040;SDS011;7095;51.388;6.196;2023-09-19T00:10:50;16.17;;;3.00;;
14040;SDS011;7095;51.388;6.196;2023-09-19T00:13:20;10.67;;;3.10;;
14040;SDS011;7095;51.388;6.196;2023-09-19T00:15:49;13.00;;;2.80;;
14040;SDS011;7095;51.388;6.196;2023-09-19T00:18:18;15.73;;;3.60;;
14040;SDS011;7095;51.388;6.196;2023-09-19T00:20:49;12.97;;;3.53;;
14040;SDS011;7095;51.388;6.196;2023-09-19T00:23:19;15.63;;;3.77;;
14040;SDS011;7095;51.388;6.196;2023-09-19T00:25:49;8.80;;;3.17;;
14040;SDS011;7095;51.388;6.196;2023-09-19T00:28:18;20.80;;;4.17;;
14040;SDS011;7095;51.388;6.196;2023-09-19T00:30:47;13.83;;;3.50;;
14040;SDS011;7095;51.388;6.196;2023-09-19T00:33:18;17.90;;;3.53;;
14040;SDS011;7095;51.388;6.196;2023-09-19T00:35:47;15.67;;;3.90;;
14040;SDS011;7095;51.388;6.196;2023-09-19T00:38:16;15.60;;;3.40;;
14040;SDS011;7095;51.388;6.196;2023-09-19T00:40:48;17.77;;;3.40;;
14040;SDS011;7095;51.388;6.196;2023-09-19T00:43:19;16.40;;;4.13;;
14040;SDS011;7095;51.388;6.196;2023-09-19T00:45:49;20.63;;;3.47;;
14040;SDS011;7095;51.388;6.196;2023-09-19T00:48:20;18.80;;;3.83;;
14040;SDS011;7095;51.388;6.196;2023-09-19T00:50:50;14.30;;;3.10;;
14040;SDS011;7095;51.388;6.196;2023-09-19T00:53:21;12.70;;;3.10;;
14040;SDS011;7095;51.388;6.196;2023-09-19T00:55:54;16.70;;;4.27;;
14040;SDS011;7095;51.388;6.196;2023-09-19T00:58:23;20.77;;;3.80;;
14040;SDS011;7095;51.388;6.196;2023-09-19T01:00:52;14.13;;;3.27;;
14040;SDS011;7095;51.388;6.196;2023-09-19T01:03:22;12.03;;;3.30;;
14040;SDS011;7095;51.388;6.196;2023-09-19T01:05:51;13.80;;;2.97;;
14040;SDS011;7095;51.388;6.196;2023-09-19T01:08:20;15.73;;;4.23;;
14040;SDS011;7095;51.388;6.196;2023-09-19T01:10:52;14.10;;;3.27;;
14040;SDS011;7095;51.388;6.196;2023-09-19T01:13:31;19.07;;;4.13;;
14040;SDS011;7095;51.388;6.196;2023-09-19T01:16:10;13.53;;;3.30;;
14040;SDS011;7095;51.388;6.196;2023-09-19T01:18:46;16.07;;;4.23;;
14040;SDS011;7095;51.388;6.196;2023-09-19T01:21:32;19.67;;;4.07;;
14040;SDS011;7095;51.388;6.196;2023-09-19T01:27:34;11.97;;;3.47;;
14040;SDS011;7095;51.388;6.196;2023-09-19T01:30:24;13.50;;;3.17;;
14040;SDS011;7095;51.388;6.196;2023-09-19T01:33:02;17.17;;;4.00;;
14040;SDS011;7095;51.388;6.196;2023-09-19T01:35:33;18.57;;;3.67;;
14040;SDS011;7095;51.388;6.196;2023-09-19T01:38:06;21.87;;;4.03;;
14040;SDS011;7095;51.388;6.196;2023-09-19T01:40:38;9.20;;;2.67;;
14040;SDS011;7095;51.388;6.196;2023-09-19T01:43:12;12.70;;;3.17;;
14040;SDS011;7095;51.388;6.196;2023-09-19T01:45:54;12.03;;;4.13;;
14040;SDS011;7095;51.388;6.196;2023-09-19T01:48:30;17.83;;;4.47;;
14040;SDS011;7095;51.388;6.196;2023-09-19T01:51:05;13.57;;;3.17;;
14040;SDS011;7095;51.388;6.196;2023-09-19T01:53:36;17.20;;;3.60;;
14040;SDS011;7095;51.388;6.196;2023-09-19T01:56:21;15.43;;;3.87;;
14040;SDS011;7095;51.388;6.196;2023-09-19T01:58:53;16.83;;;3.30;;
14040;SDS011;7095;51.388;6.196;2023-09-19T02:01:29;13.00;;;3.33;;
14040;SDS011;7095;51.388;6.196;2023-09-19T02:03:59;16.57;;;3.30;;
14040;SDS011;7095;51.388;6.196;2023-09-19T02:06:27;13.43;;;3.70;;
14040;SDS011;7095;51.388;6.196;2023-09-19T02:08:56;11.83;;;2.90;;
14040;SDS011;7095;51.388;6.196;2023-09-19T02:11:26;11.13;;;3.60;;
14040;SDS011;7095;51.388;6.196;2023-09-19T02:13:55;15.83;;;3.90;;
14040;SDS011;7095;51.388;6.196;2023-09-19T02:16:25;16.23;;;4.27;;
14040;SDS011;7095;51.388;6.196;2023-09-19T02:18:54;12.20;;;3.50;;
14040;SDS011;7095;51.388;6.196;2023-09-19T02:21:23;15.30;;;3.90;;
14040;SDS011;7095;51.388;6.196;2023-09-19T02:23:52;11.23;;;3.47;;
14040;SDS011;7095;51.388;6.196;2023-09-19T02:26:20;13.53;;;3.30;;
14040;SDS011;7095;51.388;6.196;2023-09-19T02:28:51;15.83;;;3.43;;
14040;SDS011;7095;51.388;6.196;2023-09-19T02:31:19;11.80;;;2.90;;
14040;SDS011;7095;51.388;6.196;2023-09-19T02:33:48;12.77;;;3.77;;
14040;SDS011;7095;51.388;6.196;2023-09-19T02:36:18;18.77;;;4.50;;
14040;SDS011;7095;51.388;6.196;2023-09-19T02:38:46;14.43;;;3.73;;
14040;SDS011;7095;51.388;6.196;2023-09-19T02:41:15;15.47;;;3.70;;
14040;SDS011;7095;51.388;6.196;2023-09-19T02:43:43;14.73;;;3.37;;
14040;SDS011;7095;51.388;6.196;2023-09-19T02:46:12;16.60;;;3.17;;
14040;SDS011;7095;51.388;6.196;2023-09-19T02:48:40;12.40;;;3.60;;
14040;SDS011;7095;51.388;6.196;2023-09-19T02:51:09;13.00;;;3.13;;
14040;SDS011;7095;51.388;6.196;2023-09-19T02:53:39;10.67;;;2.80;;
14040;SDS011;7095;51.388;6.196;2023-09-19T02:56:09;13.53;;;3.67;;
14040;SDS011;7095;51.388;6.196;2023-09-19T02:58:41;15.93;;;4.03;;
14040;SDS011;7095;51.388;6.196;2023-09-19T03:01:09;13.47;;;3.20;;
14040;SDS011;7095;51.388;6.196;2023-09-19T03:03:40;14.73;;;3.70;;
14040;SDS011;7095;51.388;6.196;2023-09-19T03:06:09;8.33;;;2.93;;
14040;SDS011;7095;51.388;6.196;2023-09-19T03:08:42;10.50;;;2.63;;
14040;SDS011;7095;51.388;6.196;2023-09-19T03:11:10;16.20;;;3.97;;
14040;SDS011;7095;51.388;6.196;2023-09-19T03:13:43;14.33;;;3.50;;
14040;SDS011;7095;51.388;6.196;2023-09-19T03:16:12;10.27;;;2.80;;
14040;SDS011;7095;51.388;6.196;2023-09-19T03:18:42;21.23;;;3.80;;
14040;SDS011;7095;51.388;6.196;2023-09-19T03:21:11;10.57;;;3.33;;
14040;SDS011;7095;51.388;6.196;2023-09-19T03:23:42;13.10;;;3.20;;
14040;SDS011;7095;51.388;6.196;2023-09-19T03:26:12;14.50;;;3.47;;
14040;SDS011;7095;51.388;6.196;2023-09-19T03:28:43;16.00;;;3.63;;
14040;SDS011;7095;51.388;6.196;2023-09-19T03:31:13;11.03;;;3.10;;
14040;SDS011;7095;51.388;6.196;2023-09-19T03:33:42;8.93;;;2.80;;
14040;SDS011;7095;51.388;6.196;2023-09-19T03:36:10;18.20;;;3.13;;
14040;SDS011;7095;51.388;6.196;2023-09-19T03:38:43;14.83;;;3.90;;
14040;SDS011;7095;51.388;6.196;2023-09-19T03:41:12;12.73;;;4.33;;
14040;SDS011;7095;51.388;6.196;2023-09-19T03:43:41;15.47;;;3.83;;
14040;SDS011;7095;51.388;6.196;2023-09-19T03:46:10;13.87;;;2.87;;
14040;SDS011;7095;51.388;6.196;2023-09-19T03:48:40;15.00;;;3.57;;
14040;SDS011;7095;51.388;6.196;2023-09-19T03:51:09;13.43;;;3.57;;
14040;SDS011;7095;51.388;6.196;2023-09-19T03:53:38;9.53;;;2.97;;
14040;SDS011;7095;51.388;6.196;2023-09-19T03:56:08;17.03;;;3.80;;
14040;SDS011;7095;51.388;6.196;2023-09-19T03:58:37;11.47;;;3.43;;
14040;SDS011;7095;51.388;6.196;2023-09-19T04:01:06;10.80;;;2.90;;
14040;SDS011;7095;51.388;6.196;2023-09-19T04:03:35;17.10;;;3.57;;
14040;SDS011;7095;51.388;6.196;2023-09-19T04:06:15;17.67;;;3.57;;
14040;SDS011;7095;51.388;6.196;2023-09-19T04:08:44;8.70;;;3.13;;
14040;SDS011;7095;51.388;6.196;2023-09-19T04:11:15;18.23;;;4.13;;
14040;SDS011;7095;51.388;6.196;2023-09-19T04:13:45;14.77;;;3.20;;
14040;SDS011;7095;51.388;6.196;2023-09-19T04:16:14;16.80;;;3.53;;
14040;SDS011;7095;51.388;6.196;2023-09-19T04:18:43;17.30;;;3.63;;
14040;SDS011;7095;51.388;6.196;2023-09-19T04:21:12;15.13;;;4.23;;
14040;SDS011;7095;51.388;6.196;2023-09-19T04:23:40;15.27;;;3.70;;
14040;SDS011;7095;51.388;6.196;2023-09-19T04:26:09;16.47;;;4.07;;
14040;SDS011;7095;51.388;6.196;2023-09-19T04:28:40;14.27;;;3.83;;
14040;SDS011;7095;51.388;6.196;2023-09-19T04:31:10;14.60;;;3.43;;
14040;SDS011;7095;51.388;6.196;2023-09-19T04:33:41;13.33;;;3.50;;
14040;SDS011;7095;51.388;6.196;2023-09-19T04:36:10;13.83;;;4.03;;
14040;SDS011;7095;51.388;6.196;2023-09-19T04:39:00;16.03;;;3.80;;
14040;SDS011;7095;51.388;6.196;2023-09-19T04:41:31;9.87;;;3.40;;
14040;SDS011;7095;51.388;6.196;2023-09-19T04:44:02;10.40;;;3.40;;
14040;SDS011;7095;51.388;6.196;2023-09-19T04:46:31;14.50;;;3.80;;
14040;SDS011;7095;51.388;6.196;2023-09-19T04:48:59;11.27;;;3.83;;
14040;SDS011;7095;51.388;6.196;2023-09-19T04:51:28;13.03;;;3.67;;
14040;SDS011;7095;51.388;6.196;2023-09-19T04:54:01;17.23;;;4.00;;
14040;SDS011;7095;51.388;6.196;2023-09-19T04:56:30;8.83;;;3.50;;
14040;SDS011;7095;51.388;6.196;2023-09-19T04:58:59;13.87;;;3.83;;
14040;SDS011;7095;51.388;6.196;2023-09-19T05:01:29;11.23;;;3.30;;
14040;SDS011;7095;51.388;6.196;2023-09-19T05:03:56;14.10;;;3.60;;
14040;SDS011;7095;51.388;6.196;2023-09-19T05:06:25;15.70;;;3.70;;
14040;SDS011;7095;51.388;6.196;2023-09-19T05:08:54;9.47;;;2.80;;
14040;SDS011;7095;51.388;6.196;2023-09-19T05:11:22;18.57;;;3.63;;
14040;SDS011;7095;51.388;6.196;2023-09-19T05:13:51;12.50;;;3.50;;
14040;SDS011;7095;51.388;6.196;2023-09-19T05:16:20;13.47;;;3.40;;
14040;SDS011;7095;51.388;6.196;2023-09-19T05:18:50;9.20;;;3.20;;
14040;SDS011;7095;51.388;6.196;2023-09-19T05:21:19;14.33;;;3.90;;
14040;SDS011;7095;51.388;6.196;2023-09-19T05:23:47;11.17;;;3.13;;
14040;SDS011;7095;51.388;6.196;2023-09-19T05:26:16;10.00;;;3.20;;
14040;SDS011;7095;51.388;6.196;2023-09-19T05:28:45;14.07;;;3.40;;
14040;SDS011;7095;51.388;6.196;2023-09-19T05:31:15;13.60;;;3.33;;
14040;SDS011;7095;51.388;6.196;2023-09-19T05:33:44;9.57;;;3.47;;
14040;SDS011;7095;51.388;6.196;2023-09-19T05:36:14;15.23;;;3.90;;
14040;SDS011;7095;51.388;6.196;2023-09-19T05:38:43;11.73;;;3.37;;
14040;SDS011;7095;51.388;6.196;2023-09-19T05:41:12;13.53;;;3.50;;
14040;SDS011;7095;51.388;6.196;2023-09-19T05:43:41;13.53;;;3.63;;
14040;SDS011;7095;51.388;6.196;2023-09-19T05:46:10;15.33;;;4.07;;
14040;SDS011;7095;51.388;6.196;2023-09-19T05:48:39;17.27;;;3.73;;
14040;SDS011;7095;51.388;6.196;2023-09-19T05:51:08;16.53;;;4.43;;
14040;SDS011;7095;51.388;6.196;2023-09-19T05:53:38;10.53;;;3.20;;
14040;SDS011;7095;51.388;6.196;2023-09-19T05:56:10;11.57;;;3.23;;
14040;SDS011;7095;51.388;6.196;2023-09-19T05:58:40;14.27;;;3.27;;
14040;SDS011;7095;51.388;6.196;2023-09-19T06:01:13;8.60;;;2.97;;
14040;SDS011;7095;51.388;6.196;2023-09-19T06:03:46;9.13;;;3.43;;
14040;SDS011;7095;51.388;6.196;2023-09-19T06:06:16;17.23;;;3.53;;
14040;SDS011;7095;51.388;6.196;2023-09-19T06:08:47;14.40;;;4.23;;
14040;SDS011;7095;51.388;6.196;2023-09-19T06:11:17;13.43;;;3.03;;
14040;SDS011;7095;51.388;6.196;2023-09-19T06:13:47;16.10;;;3.60;;
14040;SDS011;7095;51.388;6.196;2023-09-19T06:16:16;16.57;;;4.80;;
14040;SDS011;7095;51.388;6.196;2023-09-19T06:18:45;13.77;;;3.70;;
14040;SDS011;7095;51.388;6.196;2023-09-19T06:21:13;16.20;;;3.67;;
14040;SDS011;7095;51.388;6.196;2023-09-19T06:23:42;13.70;;;3.30;;
14040;SDS011;7095;51.388;6.196;2023-09-19T06:26:12;18.37;;;4.77;;
14040;SDS011;7095;51.388;6.196;2023-09-19T06:28:40;17.93;;;3.40;;
14040;SDS011;7095;51.388;6.196;2023-09-19T06:31:09;18.03;;;4.03;;
14040;SDS011;7095;51.388;6.196;2023-09-19T06:33:38;16.50;;;3.90;;
14040;SDS011;7095;51.388;6.196;2023-09-19T06:36:07;15.30;;;4.33;;
14040;SDS011;7095;51.388;6.196;2023-09-19T06:38:36;14.43;;;3.00;;
14040;SDS011;7095;51.388;6.196;2023-09-19T06:41:05;16.03;;;3.77;;
14040;SDS011;7095;51.388;6.196;2023-09-19T06:43:36;17.37;;;4.00;;
14040;SDS011;7095;51.388;6.196;2023-09-19T06:46:06;21.17;;;4.00;;
14040;SDS011;7095;51.388;6.196;2023-09-19T06:48:35;18.80;;;4.07;;
14040;SDS011;7095;51.388;6.196;2023-09-19T06:51:03;13.77;;;3.57;;
14040;SDS011;7095;51.388;6.196;2023-09-19T06:53:32;14.67;;;3.83;;
14040;SDS011;7095;51.388;6.196;2023-09-19T06:56:02;11.87;;;3.60;;
14040;SDS011;7095;51.388;6.196;2023-09-19T06:58:32;13.50;;;3.93;;
14040;SDS011;7095;51.388;6.196;2023-09-19T07:01:03;11.70;;;3.70;;
14040;SDS011;7095;51.388;6.196;2023-09-19T07:03:32;20.50;;;4.83;;
14040;SDS011;7095;51.388;6.196;2023-09-19T07:06:01;11.20;;;3.43;;
14040;SDS011;7095;51.388;6.196;2023-09-19T07:08:31;15.00;;;3.50;;
14040;SDS011;7095;51.388;6.196;2023-09-19T07:10:59;14.30;;;3.20;;
14040;SDS011;7095;51.388;6.196;2023-09-19T07:13:28;13.63;;;3.10;;
14040;SDS011;7095;51.388;6.196;2023-09-19T07:15:57;14.73;;;3.53;;
14040;SDS011;7095;51.388;6.196;2023-09-19T07:18:28;13.37;;;3.87;;
14040;SDS011;7095;51.388;6.196;2023-09-19T07:20:57;13.13;;;3.20;;
14040;SDS011;7095;51.388;6.196;2023-09-19T07:23:28;15.60;;;4.53;;
14040;SDS011;7095;51.388;6.196;2023-09-19T07:25:56;16.00;;;4.13;;
14040;SDS011;7095;51.388;6.196;2023-09-19T07:28:28;20.00;;;4.30;;
14040;SDS011;7095;51.388;6.196;2023-09-19T07:30:57;16.23;;;3.33;;
14040;SDS011;7095;51.388;6.196;2023-09-19T07:33:25;14.20;;;3.63;;
14040;SDS011;7095;51.388;6.196;2023-09-19T07:35:59;18.67;;;4.60;;
14040;SDS011;7095;51.388;6.196;2023-09-19T07:38:28;14.30;;;3.13;;
14040;SDS011;7095;51.388;6.196;2023-09-19T07:40:59;13.93;;;3.50;;
14040;SDS011;7095;51.388;6.196;2023-09-19T07:43:29;9.70;;;2.73;;
14040;SDS011;7095;51.388;6.196;2023-09-19T07:46:02;13.13;;;3.53;;
14040;SDS011;7095;51.388;6.196;2023-09-19T07:48:35;13.63;;;3.80;;
14040;SDS011;7095;51.388;6.196;2023-09-19T07:51:06;15.23;;;3.63;;
14040;SDS011;7095;51.388;6.196;2023-09-19T07:53:35;15.87;;;3.60;;
14040;SDS011;7095;51.388;6.196;2023-09-19T07:56:05;16.03;;;3.77;;
14040;SDS011;7095;51.388;6.196;2023-09-19T07:58:35;15.80;;;3.50;;
14040;SDS011;7095;51.388;6.196;2023-09-19T08:01:08;11.50;;;3.50;;
14040;SDS011;7095;51.388;6.196;2023-09-19T08:03:37;17.53;;;3.50;;
14040;SDS011;7095;51.388;6.196;2023-09-19T08:06:09;12.73;;;3.17;;
14040;SDS011;7095;51.388;6.196;2023-09-19T08:08:38;13.37;;;3.40;;
14040;SDS011;7095;51.388;6.196;2023-09-19T08:11:07;14.40;;;3.43;;
14040;SDS011;7095;51.388;6.196;2023-09-19T08:13:39;21.93;;;3.90;;
14040;SDS011;7095;51.388;6.196;2023-09-19T08:16:11;17.90;;;3.57;;
14040;SDS011;7095;51.388;6.196;2023-09-19T08:18:40;15.73;;;4.17;;
14040;SDS011;7095;51.388;6.196;2023-09-19T08:21:11;14.47;;;3.83;;
14040;SDS011;7095;51.388;6.196;2023-09-19T08:23:43;16.20;;;3.70;;
14040;SDS011;7095;51.388;6.196;2023-09-19T08:26:12;12.47;;;3.40;;
14040;SDS011;7095;51.388;6.196;2023-09-19T08:28:41;13.73;;;3.40;;
14040;SDS011;7095;51.388;6.196;2023-09-19T08:31:10;16.77;;;3.40;;
14040;SDS011;7095;51.388;6.196;2023-09-19T08:33:39;10.83;;;3.20;;
14040;SDS011;7095;51.388;6.196;2023-09-19T08:36:09;12.53;;;3.60;;
14040;SDS011;7095;51.388;6.196;2023-09-19T08:38:41;17.70;;;4.00;;
14040;SDS011;7095;51.388;6.196;2023-09-19T08:41:09;12.80;;;3.73;;
14040;SDS011;7095;51.388;6.196;2023-09-19T08:43:39;12.00;;;3.67;;
14040;SDS011;7095;51.388;6.196;2023-09-19T08:46:09;14.07;;;3.20;;
14040;SDS011;7095;51.388;6.196;2023-09-19T08:48:45;15.70;;;3.73;;
14040;SDS011;7095;51.388;6.196;2023-09-19T08:51:21;11.17;;;3.20;;
14040;SDS011;7095;51.388;6.196;2023-09-19T08:53:58;11.60;;;3.20;;
14040;SDS011;7095;51.388;6.196;2023-09-19T08:56:32;12.80;;;3.67;;
14040;SDS011;7095;51.388;6.196;2023-09-19T08:59:02;17.53;;;4.43;;
14040;SDS011;7095;51.388;6.196;2023-09-19T09:01:32;14.80;;;3.90;;
14040;SDS011;7095;51.388;6.196;2023-09-19T09:04:01;11.20;;;3.67;;
14040;SDS011;7095;51.388;6.196;2023-09-19T09:06:32;21.17;;;3.97;;
14040;SDS011;7095;51.388;6.196;2023-09-19T09:09:02;16.13;;;3.50;;
14040;SDS011;7095;51.388;6.196;2023-09-19T09:11:32;20.13;;;3.93;;
14040;SDS011;7095;51.388;6.196;2023-09-19T09:14:01;14.83;;;3.50;;
14040;SDS011;7095;51.388;6.196;2023-09-19T09:16:33;13.23;;;3.80;;
14040;SDS011;7095;51.388;6.196;2023-09-19T09:19:04;16.90;;;4.40;;
14040;SDS011;7095;51.388;6.196;2023-09-19T09:21:35;10.53;;;3.20;;
14040;SDS011;7095;51.388;6.196;2023-09-19T09:26:57;11.13;;;2.87;;
14040;SDS011;7095;51.388;6.196;2023-09-19T09:29:39;16.07;;;3.13;;
14040;SDS011;7095;51.388;6.196;2023-09-19T09:32:17;15.87;;;3.60;;
14040;SDS011;7095;51.388;6.196;2023-09-19T09:34:47;18.17;;;4.07;;
14040;SDS011;7095;51.388;6.196;2023-09-19T09:37:18;13.57;;;3.53;;
14040;SDS011;7095;51.388;6.196;2023-09-19T09:39:49;12.37;;;3.70;;
14040;SDS011;7095;51.388;6.196;2023-09-19T09:42:32;15.80;;;3.80;;
14040;SDS011;7095;51.388;6.196;2023-09-19T09:45:12;16.83;;;3.73;;
14040;SDS011;7095;51.388;6.196;2023-09-19T09:47:42;11.27;;;2.93;;
14040;SDS011;7095;51.388;6.196;2023-09-19T09:50:23;14.80;;;3.67;;
14040;SDS011;7095;51.388;6.196;2023-09-19T09:53:22;8.53;;;3.50;;
14040;SDS011;7095;51.388;6.196;2023-09-19T09:55:58;8.17;;;3.03;;
14040;SDS011;7095;51.388;6.196;2023-09-19T09:58:29;8.70;;;3.43;;
14040;SDS011;7095;51.388;6.196;2023-09-19T10:00:59;14.20;;;3.30;;
14040;SDS011;7095;51.388;6.196;2023-09-19T10:03:38;11.23;;;3.27;;
14040;SDS011;7095;51.388;6.196;2023-09-19T10:06:09;13.03;;;3.50;;
14040;SDS011;7095;51.388;6.196;2023-09-19T10:09:05;13.30;;;3.83;;
14040;SDS011;7095;51.388;6.196;2023-09-19T10:11:42;10.57;;;3.23;;
14040;SDS011;7095;51.388;6.196;2023-09-19T10:14:13;13.20;;;3.37;;
14040;SDS011;7095;51.388;6.196;2023-09-19T10:16:45;12.60;;;3.37;;
14040;SDS011;7095;51.388;6.196;2023-09-19T10:19:16;15.93;;;3.40;;
14040;SDS011;7095;51.388;6.196;2023-09-19T10:21:53;9.37;;;3.40;;
14040;SDS011;7095;51.388;6.196;2023-09-19T10:24:25;12.73;;;3.77;;
14040;SDS011;7095;51.388;6.196;2023-09-19T10:26:59;8.50;;;3.17;;
14040;SDS011;7095;51.388;6.196;2023-09-19T10:29:28;15.60;;;3.33;;
14040;SDS011;7095;51.388;6.196;2023-09-19T10:32:03;14.57;;;3.17;;
14040;SDS011;7095;51.388;6.196;2023-09-19T10:34:33;12.87;;;3.23;;
14040;SDS011;7095;51.388;6.196;2023-09-19T10:37:03;13.40;;;3.33;;
14040;SDS011;7095;51.388;6.196;2023-09-19T10:39:37;18.20;;;3.50;;
14040;SDS011;7095;51.388;6.196;2023-09-19T10:42:08;11.57;;;3.33;;
14040;SDS011;7095;51.388;6.196;2023-09-19T10:44:44;18.03;;;3.30;;
14040;SDS011;7095;51.388;6.196;2023-09-19T10:47:14;15.37;;;3.60;;
14040;SDS011;7095;51.388;6.196;2023-09-19T10:49:43;7.80;;;2.60;;
14040;SDS011;7095;51.388;6.196;2023-09-19T10:52:20;11.30;;;3.17;;
14040;SDS011;7095;51.388;6.196;2023-09-19T10:54:57;7.30;;;2.63;;
14040;SDS011;7095;51.388;6.196;2023-09-19T10:57:30;15.53;;;3.03;;
14040;SDS011;7095;51.388;6.196;2023-09-19T11:00:02;12.67;;;3.57;;
14040;SDS011;7095;51.388;6.196;2023-09-19T11:06:00;10.67;;;3.07;;
14040;SDS011;7095;51.388;6.196;2023-09-19T11:08:57;9.30;;;2.60;;
14040;SDS011;7095;51.388;6.196;2023-09-19T11:11:51;13.10;;;3.40;;
14040;SDS011;7095;51.388;6.196;2023-09-19T11:14:40;11.47;;;3.30;;
14040;SDS011;7095;51.388;6.196;2023-09-19T11:17:31;10.60;;;3.03;;
14040;SDS011;7095;51.388;6.196;2023-09-19T11:20:18;12.57;;;3.40;;
14040;SDS011;7095;51.388;6.196;2023-09-19T11:23:17;8.70;;;3.17;;
14040;SDS011;7095;51.388;6.196;2023-09-19T11:25:50;11.23;;;2.80;;
14040;SDS011;7095;51.388;6.196;2023-09-19T11:28:34;13.00;;;3.57;;
14040;SDS011;7095;51.388;6.196;2023-09-19T11:40:45;15.33;;;3.63;;
14040;SDS011;7095;51.388;6.196;2023-09-19T11:43:28;10.17;;;3.13;;
14040;SDS011;7095;51.388;6.196;2023-09-19T11:46:12;14.50;;;4.10;;
14040;SDS011;7095;51.388;6.196;2023-09-19T11:48:43;7.23;;;2.93;;
14040;SDS011;7095;51.388;6.196;2023-09-19T11:51:14;10.77;;;3.07;;
14040;SDS011;7095;51.388;6.196;2023-09-19T11:53:49;11.97;;;3.30;;
14040;SDS011;7095;51.388;6.196;2023-09-19T11:56:20;11.00;;;3.50;;
14040;SDS011;7095;51.388;6.196;2023-09-19T11:58:51;13.43;;;2.60;;
14040;SDS011;7095;51.388;6.196;2023-09-19T12:01:24;7.77;;;2.83;;
14040;SDS011;7095;51.388;6.196;2023-09-19T12:03:59;14.33;;;3.10;;
14040;SDS011;7095;51.388;6.196;2023-09-19T12:06:35;9.33;;;2.77;;
14040;SDS011;7095;51.388;6.196;2023-09-19T12:09:12;8.60;;;3.10;;
14040;SDS011;7095;51.388;6.196;2023-09-19T12:11:43;9.83;;;2.90;;
14040;SDS011;7095;51.388;6.196;2023-09-19T12:14:21;9.80;;;3.17;;
14040;SDS011;7095;51.388;6.196;2023-09-19T12:16:54;8.73;;;2.70;;
14040;SDS011;7095;51.388;6.196;2023-09-19T12:19:23;16.87;;;3.17;;
14040;SDS011;7095;51.388;6.196;2023-09-19T12:21:57;9.40;;;3.13;;
14040;SDS011;7095;51.388;6.196;2023-09-19T12:24:31;10.10;;;2.73;;
14040;SDS011;7095;51.388;6.196;2023-09-19T12:27:05;11.17;;;3.13;;
14040;SDS011;7095;51.388;6.196;2023-09-19T12:29:44;5.53;;;2.00;;
14040;SDS011;7095;51.388;6.196;2023-09-19T12:32:17;11.03;;;2.73;;
14040;SDS011;7095;51.388;6.196;2023-09-19T12:34:51;12.37;;;2.73;;
14040;SDS011;7095;51.388;6.196;2023-09-19T12:37:22;9.00;;;2.30;;
14040;SDS011;7095;51.388;6.196;2023-09-19T12:40:03;6.60;;;2.00;;
14040;SDS011;7095;51.388;6.196;2023-09-19T12:42:42;9.57;;;2.30;;
14040;SDS011;7095;51.388;6.196;2023-09-19T12:45:12;10.93;;;2.00;;
14040;SDS011;7095;51.388;6.196;2023-09-19T12:51:00;11.67;;;2.77;;
14040;SDS011;7095;51.388;6.196;2023-09-19T12:53:33;7.00;;;2.00;;
14040;SDS011;7095;51.388;6.196;2023-09-19T12:56:08;7.83;;;2.30;;
14040;SDS011;7095;51.388;6.196;2023-09-19T12:58:48;10.73;;;2.40;;
14040;SDS011;7095;51.388;6.196;2023-09-19T13:01:17;7.43;;;2.30;;
14040;SDS011;7095;51.388;6.196;2023-09-19T13:03:50;10.57;;;2.17;;
14040;SDS011;7095;51.388;6.196;2023-09-19T13:06:41;6.47;;;1.70;;
14040;SDS011;7095;51.388;6.196;2023-09-19T13:09:11;5.20;;;2.00;;
14040;SDS011;7095;51.388;6.196;2023-09-19T13:11:41;6.43;;;2.30;;
14040;SDS011;7095;51.388;6.196;2023-09-19T13:14:16;6.83;;;2.07;;
14040;SDS011;7095;51.388;6.196;2023-09-19T13:16:53;6.97;;;1.70;;
14040;SDS011;7095;51.388;6.196;2023-09-19T13:19:38;7.63;;;1.80;;
14040;SDS011;7095;51.388;6.196;2023-09-19T13:25:08;8.10;;;1.90;;
14040;SDS011;7095;51.388;6.196;2023-09-19T13:27:41;5.13;;;1.33;;
14040;SDS011;7095;51.388;6.196;2023-09-19T13:30:12;6.20;;;1.53;;
14040;SDS011;7095;51.388;6.196;2023-09-19T13:32:41;11.23;;;2.13;;
14040;SDS011;7095;51.388;6.196;2023-09-19T13:35:12;4.57;;;1.40;;
14040;SDS011;7095;51.388;6.196;2023-09-19T13:37:42;5.07;;;1.70;;
14040;SDS011;7095;51.388;6.196;2023-09-19T13:40:12;9.60;;;1.63;;
14040;SDS011;7095;51.388;6.196;2023-09-19T13:42:41;8.23;;;1.97;;
14040;SDS011;7095;51.388;6.196;2023-09-19T13:45:10;8.70;;;1.23;;
14040;SDS011;7095;51.388;6.196;2023-09-19T13:47:42;15.47;;;1.73;;
14040;SDS011;7095;51.388;6.196;2023-09-19T13:50:13;6.10;;;1.53;;
14040;SDS011;7095;51.388;6.196;2023-09-19T13:52:42;5.33;;;0.90;;
14040;SDS011;7095;51.388;6.196;2023-09-19T13:55:10;6.47;;;1.57;;
14040;SDS011;7095;51.388;6.196;2023-09-19T13:57:46;9.60;;;1.57;;
14040;SDS011;7095;51.388;6.196;2023-09-19T14:00:16;3.87;;;1.20;;
14040;SDS011;7095;51.388;6.196;2023-09-19T14:02:45;4.40;;;1.83;;
14040;SDS011;7095;51.388;6.196;2023-09-19T14:05:17;13.10;;;1.60;;
14040;SDS011;7095;51.388;6.196;2023-09-19T14:07:48;2.70;;;1.23;;
14040;SDS011;7095;51.388;6.196;2023-09-19T14:10:18;2.97;;;1.20;;
14040;SDS011;7095;51.388;6.196;2023-09-19T14:12:47;3.93;;;1.30;;
14040;SDS011;7095;51.388;6.196;2023-09-19T14:15:16;2.37;;;0.80;;
14040;SDS011;7095;51.388;6.196;2023-09-19T14:17:47;4.17;;;1.37;;
14040;SDS011;7095;51.388;6.196;2023-09-19T14:20:16;4.00;;;1.23;;
14040;SDS011;7095;51.388;6.196;2023-09-19T14:22:46;3.23;;;0.90;;
14040;SDS011;7095;51.388;6.196;2023-09-19T14:25:15;3.73;;;1.13;;
14040;SDS011;7095;51.388;6.196;2023-09-19T14:27:44;4.50;;;1.10;;
14040;SDS011;7095;51.388;6.196;2023-09-19T14:30:13;5.00;;;1.27;;
14040;SDS011;7095;51.388;6.196;2023-09-19T14:32:42;5.97;;;1.57;;
14040;SDS011;7095;51.388;6.196;2023-09-19T14:35:10;3.33;;;1.20;;
14040;SDS011;7095;51.388;6.196;2023-09-19T14:37:42;4.87;;;0.83;;
14040;SDS011;7095;51.388;6.196;2023-09-19T14:40:12;3.03;;;1.00;;
14040;SDS011;7095;51.388;6.196;2023-09-19T14:42:44;37.40;;;2.27;;
14040;SDS011;7095;51.388;6.196;2023-09-19T14:45:15;5.43;;;1.20;;
14040;SDS011;7095;51.388;6.196;2023-09-19T14:47:45;4.93;;;1.53;;
14040;SDS011;7095;51.388;6.196;2023-09-19T14:50:15;2.30;;;0.87;;
14040;SDS011;7095;51.388;6.196;2023-09-19T14:52:45;7.03;;;1.40;;
14040;SDS011;7095;51.388;6.196;2023-09-19T14:55:13;3.27;;;1.37;;
14040;SDS011;7095;51.388;6.196;2023-09-19T14:57:42;4.90;;;1.67;;
14040;SDS011;7095;51.388;6.196;2023-09-19T15:00:13;6.63;;;1.17;;
14040;SDS011;7095;51.388;6.196;2023-09-19T15:02:43;7.50;;;1.47;;
14040;SDS011;7095;51.388;6.196;2023-09-19T15:05:15;5.50;;;1.27;;
14040;SDS011;7095;51.388;6.196;2023-09-19T15:07:48;5.47;;;1.27;;
14040;SDS011;7095;51.388;6.196;2023-09-19T15:10:16;9.17;;;1.67;;
14040;SDS011;7095;51.388;6.196;2023-09-19T15:12:45;8.30;;;2.33;;
14040;SDS011;7095;51.388;6.196;2023-09-19T15:15:14;3.23;;;1.13;;
14040;SDS011;7095;51.388;6.196;2023-09-19T15:17:42;2.53;;;1.30;;
14040;SDS011;7095;51.388;6.196;2023-09-19T15:20:11;5.83;;;1.50;;
14040;SDS011;7095;51.388;6.196;2023-09-19T15:22:41;7.07;;;1.47;;
14040;SDS011;7095;51.388;6.196;2023-09-19T15:25:11;4.73;;;1.13;;
14040;SDS011;7095;51.388;6.196;2023-09-19T15:27:40;4.53;;;1.67;;
14040;SDS011;7095;51.388;6.196;2023-09-19T15:30:09;4.40;;;1.27;;
14040;SDS011;7095;51.388;6.196;2023-09-19T15:32:38;10.87;;;2.17;;
14040;SDS011;7095;51.388;6.196;2023-09-19T15:35:07;4.77;;;1.50;;
14040;SDS011;7095;51.388;6.196;2023-09-19T15:37:40;8.90;;;2.43;;
14040;SDS011;7095;51.388;6.196;2023-09-19T15:40:09;14.90;;;1.97;;
14040;SDS011;7095;51.388;6.196;2023-09-19T15:42:41;4.47;;;1.20;;